Terminal Aerodrome Forecast
Issued by NWS Louisville, KY

Home | Current Version | Previous Version | Text Only | Print | Product List | Glossary On
Versions: 1 2 3 4 5 6 7 8 9 10 11 12 13 14 15 16
000
FTUS43 KLMK 171740
TAFLEX
TAF
KLEX 171740Z 1718/1818 VRB04KT 3SM -RA BR OVC008
      TEMPO 1718/1722 1SM -RA BR OVC008
     FM172200 19006KT P6SM VCSH OVC007
     FM180600 24006KT P6SM BKN008
     FM181100 26004KT P6SM SCT025=

USA.gov is the U.S. government's official web portal to all federal, state and local government web resources and services.